Archival Weather

Dane County Rgnl/Truax Fld

Madison, Wisconsin (KMSN)

Report from: Sunday, April 21, 2024 10:53 AM CDT
Current time: Tuesday, May 21, 2024 12:47 PM CDT

Current weather – Weather history – Daily summaries
Weather forecast

Temperature8.9°C (48.0°F)
Wind chill5.8°C (42.4°F)
Dew point-3.9°C (25.0°F)
Winds 12 kts (6.2 m/s, 13.8 mph) North-Northwest (330°)
Visibility10 mi. (16.1 km)
Clouds Sky clear
Altimeter30.18 in.Hg (1022 mB)
Relative humidity40 %
Density altitude-976 ft. (-298 m)
Sea-level pressure102.3 kPa (1023 mB, 30.20 in.Hg)
Remarks System requires maintenance
Automated weather observing station with precipitation discriminator
Flight conditions Visual Meteorological Conditions
Raw dataKMSN 211553Z 33012KT 10SM CLR 09/M04 A3018 RMK AO2 SLP227 T00891039 $
An error has occurred. This application may no longer respond until reloaded. Reload 🗙